メインページ
METAR-TAF:

METAR-TAF

空港 :

ムルマンスク, ロシア

緯度: 68-58N, 経度: 033-03E, 海抜: 51m

現時点の気象観測

当レポートは23分前の13:00(UTC)に作成
南西の風 4kt
気温 10°C
湿度 76%
気圧 1039 hPa
視程10km以上
高度1300ftの千切れ雲あり

METAR: ULMM 251300Z 22002MPS 9999 BKN013 10/06 Q1039 R31/090070 NOSIG RMK QFE772

時間: 16:23 (13:23 UTC)

予報

当レポートは2時間26分前の10:57(UTC)に作成
予報は25日の 12時(UTC)から 26日の 12時(UTC)まで有効
南/南西の風 6kt
視程10km以上
高度1200ftの千切れ雲あり
25日の 12時(UTC)から 25日の 23時(UTC)まで一時的に
西/南西の風 8kt、最大17ktの突風を伴う
高度1100ftの雲は散在している
高度1200ftの千切れ雲あり, 積乱雲.
弱いにわか雨
25日の 23時(UTC)から 26日の 08時(UTC)まで一時的に
西/南西の風 4kt
視程: 0300m
高度200ftの雲は散在している
高度1200ftの千切れ雲あり
26日の 08時(UTC)から 26日の 09時(UTC)まで徐々に
視程10km以上
26日の 08時(UTC)から 26日の 12時(UTC)まで一時的に
西/南西の風 8kt、最大17ktの突風を伴う

TAF: ULMM 251057Z 2512/2612 21003MPS 9999 BKN012 TEMPO 2512/2523 24004G09MPS -SHRA SCT011 BKN012CB TEMPO 2523/2608 24002MPS 0300 FG SCT002 BKN012 BECMG 2608/2609 9999 NSW TEMPO 2608/2612 25004G09MPS

4,000以上の空港の気象観測と天気予報(METAR報とTAF報)

利用可能な観測所は地図上に黄色い丸と赤い丸で示す。

丸の上にカーソルを重ねると観測所名を参照できる。

次にクリックすると気象観測と天気予報を参照できる。

マップの切り替え:黒色「×」印の緑ボタンをクリックして拡大、「-」印の緑ボタンをクリックして縮小、緑色の三角印をクリックして隣りの地図に切り替え


METAR-TAF: